sensor_id;sensor_type;location;lat;lon;timestamp;temperature;humidity
17998;DHT22;9124;48.144;17.098;2023-03-16T00:01:53;2.30;64.30
17998;DHT22;9124;48.144;17.098;2023-03-16T00:05:29;2.30;65.00
17998;DHT22;9124;48.144;17.098;2023-03-16T00:09:05;2.30;65.50
17998;DHT22;9124;48.144;17.098;2023-03-16T00:12:41;2.30;65.30
17998;DHT22;9124;48.144;17.098;2023-03-16T00:16:19;2.30;65.10
17998;DHT22;9124;48.144;17.098;2023-03-16T00:19:56;2.30;65.60
17998;DHT22;9124;48.144;17.098;2023-03-16T00:23:33;2.20;65.70
17998;DHT22;9124;48.144;17.098;2023-03-16T00:27:12;2.10;66.10
17998;DHT22;9124;48.144;17.098;2023-03-16T00:30:52;2.10;66.60
17998;DHT22;9124;48.144;17.098;2023-03-16T00:34:34;2.20;66.40
17998;DHT22;9124;48.144;17.098;2023-03-16T00:38:11;2.20;66.50
17998;DHT22;9124;48.144;17.098;2023-03-16T00:41:47;2.20;66.60
17998;DHT22;9124;48.144;17.098;2023-03-16T00:45:23;2.10;66.70
17998;DHT22;9124;48.144;17.098;2023-03-16T00:48:59;2.10;67.40
17998;DHT22;9124;48.144;17.098;2023-03-16T00:52:38;2.10;67.40
17998;DHT22;9124;48.144;17.098;2023-03-16T00:56:15;2.10;67.40
17998;DHT22;9124;48.144;17.098;2023-03-16T00:59:52;2.10;67.80
17998;DHT22;9124;48.144;17.098;2023-03-16T01:03:28;2.10;67.70
17998;DHT22;9124;48.144;17.098;2023-03-16T01:07:10;2.10;67.90
17998;DHT22;9124;48.144;17.098;2023-03-16T01:20:05;2.00;68.70
17998;DHT22;9124;48.144;17.098;2023-03-16T01:23:48;2.10;69.20
17998;DHT22;9124;48.144;17.098;2023-03-16T01:27:24;2.10;69.30
17998;DHT22;9124;48.144;17.098;2023-03-16T01:31:07;2.20;69.60
17998;DHT22;9124;48.144;17.098;2023-03-16T01:34:44;2.40;69.90
17998;DHT22;9124;48.144;17.098;2023-03-16T01:38:22;2.60;70.20
17998;DHT22;9124;48.144;17.098;2023-03-16T01:41:59;2.70;70.00
17998;DHT22;9124;48.144;17.098;2023-03-16T01:49:42;3.00;70.30
17998;DHT22;9124;48.144;17.098;2023-03-16T01:53:24;3.00;70.20
17998;DHT22;9124;48.144;17.098;2023-03-16T01:57:16;3.00;70.20
17998;DHT22;9124;48.144;17.098;2023-03-16T02:00:54;3.00;70.50
17998;DHT22;9124;48.144;17.098;2023-03-16T02:08:39;2.80;70.90
17998;DHT22;9124;48.144;17.098;2023-03-16T02:12:17;2.50;70.80
17998;DHT22;9124;48.144;17.098;2023-03-16T02:15:58;2.40;70.90
17998;DHT22;9124;48.144;17.098;2023-03-16T02:23:46;2.20;71.80
17998;DHT22;9124;48.144;17.098;2023-03-16T02:27:56;2.20;72.50
17998;DHT22;9124;48.144;17.098;2023-03-16T02:31:36;2.10;72.40
17998;DHT22;9124;48.144;17.098;2023-03-16T02:35:14;2.00;72.20
17998;DHT22;9124;48.144;17.098;2023-03-16T02:38:51;1.90;72.30
17998;DHT22;9124;48.144;17.098;2023-03-16T02:42:29;1.80;72.50
17998;DHT22;9124;48.144;17.098;2023-03-16T02:46:09;1.70;72.50
17998;DHT22;9124;48.144;17.098;2023-03-16T02:49:46;1.60;72.70
17998;DHT22;9124;48.144;17.098;2023-03-16T03:02:44;1.50;73.40
17998;DHT22;9124;48.144;17.098;2023-03-16T03:06:21;1.50;73.30
17998;DHT22;9124;48.144;17.098;2023-03-16T03:10:00;1.40;73.50
17998;DHT22;9124;48.144;17.098;2023-03-16T03:13:41;1.30;73.70
17998;DHT22;9124;48.144;17.098;2023-03-16T03:17:24;1.20;73.80
17998;DHT22;9124;48.144;17.098;2023-03-16T03:21:06;1.20;73.90
17998;DHT22;9124;48.144;17.098;2023-03-16T03:24:43;1.10;74.00
17998;DHT22;9124;48.144;17.098;2023-03-16T03:28:20;1.00;74.20
17998;DHT22;9124;48.144;17.098;2023-03-16T03:31:57;1.00;74.40
17998;DHT22;9124;48.144;17.098;2023-03-16T03:35:34;1.00;74.80
17998;DHT22;9124;48.144;17.098;2023-03-16T03:39:10;1.00;74.80
17998;DHT22;9124;48.144;17.098;2023-03-16T03:42:47;0.90;74.90
17998;DHT22;9124;48.144;17.098;2023-03-16T03:46:25;0.90;75.30
17998;DHT22;9124;48.144;17.098;2023-03-16T03:50:01;0.90;75.40
17998;DHT22;9124;48.144;17.098;2023-03-16T03:53:41;0.80;75.40
17998;DHT22;9124;48.144;17.098;2023-03-16T03:57:41;0.70;75.50
17998;DHT22;9124;48.144;17.098;2023-03-16T04:01:17;0.70;75.60
17998;DHT22;9124;48.144;17.098;2023-03-16T04:04:53;0.60;75.80
17998;DHT22;9124;48.144;17.098;2023-03-16T04:08:30;0.60;76.10
17998;DHT22;9124;48.144;17.098;2023-03-16T04:12:07;0.50;76.20
17998;DHT22;9124;48.144;17.098;2023-03-16T04:15:44;0.50;76.40
17998;DHT22;9124;48.144;17.098;2023-03-16T04:19:32;0.50;76.60
17998;DHT22;9124;48.144;17.098;2023-03-16T04:23:09;0.40;76.80
17998;DHT22;9124;48.144;17.098;2023-03-16T04:26:48;0.40;76.70
17998;DHT22;9124;48.144;17.098;2023-03-16T04:30:25;0.30;77.10
17998;DHT22;9124;48.144;17.098;2023-03-16T04:34:08;0.30;77.10
17998;DHT22;9124;48.144;17.098;2023-03-16T04:37:44;0.20;77.30
17998;DHT22;9124;48.144;17.098;2023-03-16T04:41:40;0.20;77.40
17998;DHT22;9124;48.144;17.098;2023-03-16T04:45:24;0.20;77.90
17998;DHT22;9124;48.144;17.098;2023-03-16T04:49:04;0.10;77.80
17998;DHT22;9124;48.144;17.098;2023-03-16T04:52:45;0.10;78.00
17998;DHT22;9124;48.144;17.098;2023-03-16T04:56:23;0.00;78.20
17998;DHT22;9124;48.144;17.098;2023-03-16T05:00:05;0.00;78.40
17998;DHT22;9124;48.144;17.098;2023-03-16T05:03:54;0.00;78.70
17998;DHT22;9124;48.144;17.098;2023-03-16T05:07:31;0.00;78.80
17998;DHT22;9124;48.144;17.098;2023-03-16T05:11:08;0.10;79.30
17998;DHT22;9124;48.144;17.098;2023-03-16T05:14:52;0.20;79.70
17998;DHT22;9124;48.144;17.098;2023-03-16T05:18:37;0.20;79.80
17998;DHT22;9124;48.144;17.098;2023-03-16T05:22:14;0.30;80.10
17998;DHT22;9124;48.144;17.098;2023-03-16T05:26:07;0.40;80.40
17998;DHT22;9124;48.144;17.098;2023-03-16T05:29:46;0.50;80.90
17998;DHT22;9124;48.144;17.098;2023-03-16T05:33:23;0.60;81.30
17998;DHT22;9124;48.144;17.098;2023-03-16T05:37:06;0.70;81.50
17998;DHT22;9124;48.144;17.098;2023-03-16T05:40:45;0.80;81.60
17998;DHT22;9124;48.144;17.098;2023-03-16T05:44:30;0.80;81.80
17998;DHT22;9124;48.144;17.098;2023-03-16T05:48:26;0.90;82.60
17998;DHT22;9124;48.144;17.098;2023-03-16T05:52:06;1.00;82.50
17998;DHT22;9124;48.144;17.098;2023-03-16T05:55:49;1.10;82.40
17998;DHT22;9124;48.144;17.098;2023-03-16T05:59:26;1.10;82.50
17998;DHT22;9124;48.144;17.098;2023-03-16T06:03:06;1.10;82.70
17998;DHT22;9124;48.144;17.098;2023-03-16T06:06:45;1.20;82.90
17998;DHT22;9124;48.144;17.098;2023-03-16T06:10:30;1.30;83.00
17998;DHT22;9124;48.144;17.098;2023-03-16T06:14:06;1.40;83.20
17998;DHT22;9124;48.144;17.098;2023-03-16T06:17:42;1.40;83.30
17998;DHT22;9124;48.144;17.098;2023-03-16T06:21:19;1.50;83.40
17998;DHT22;9124;48.144;17.098;2023-03-16T06:25:26;1.60;83.70
17998;DHT22;9124;48.144;17.098;2023-03-16T06:29:03;1.80;84.60
17998;DHT22;9124;48.144;17.098;2023-03-16T06:32:47;2.60;86.50
17998;DHT22;9124;48.144;17.098;2023-03-16T06:36:24;4.80;88.00
17998;DHT22;9124;48.144;17.098;2023-03-16T06:40:04;7.30;88.80
17998;DHT22;9124;48.144;17.098;2023-03-16T06:43:41;9.90;85.50
17998;DHT22;9124;48.144;17.098;2023-03-16T06:47:19;12.00;82.20
17998;DHT22;9124;48.144;17.098;2023-03-16T06:50:56;13.70;77.50
17998;DHT22;9124;48.144;17.098;2023-03-16T06:54:39;14.90;72.70
17998;DHT22;9124;48.144;17.098;2023-03-16T06:58:16;15.70;69.90
17998;DHT22;9124;48.144;17.098;2023-03-16T07:01:53;16.60;66.40
17998;DHT22;9124;48.144;17.098;2023-03-16T07:05:30;17.30;64.40
17998;DHT22;9124;48.144;17.098;2023-03-16T07:09:08;17.60;62.50
17998;DHT22;9124;48.144;17.098;2023-03-16T07:12:45;17.70;60.20
17998;DHT22;9124;48.144;17.098;2023-03-16T07:16:22;17.50;57.90
17998;DHT22;9124;48.144;17.098;2023-03-16T07:19:58;17.00;55.70
17998;DHT22;9124;48.144;17.098;2023-03-16T07:23:35;15.40;54.40
17998;DHT22;9124;48.144;17.098;2023-03-16T07:27:14;14.40;54.40
17998;DHT22;9124;48.144;17.098;2023-03-16T07:30:53;14.30;53.60
17998;DHT22;9124;48.144;17.098;2023-03-16T07:34:29;13.40;53.60
17998;DHT22;9124;48.144;17.098;2023-03-16T07:38:08;12.20;54.30
17998;DHT22;9124;48.144;17.098;2023-03-16T07:41:49;11.60;55.40
17998;DHT22;9124;48.144;17.098;2023-03-16T07:45:38;11.40;54.90
17998;DHT22;9124;48.144;17.098;2023-03-16T07:49:16;10.60;54.70
17998;DHT22;9124;48.144;17.098;2023-03-16T07:52:54;9.90;55.20
17998;DHT22;9124;48.144;17.098;2023-03-16T07:56:30;9.70;56.00
17998;DHT22;9124;48.144;17.098;2023-03-16T08:00:10;11.70;56.90
17998;DHT22;9124;48.144;17.098;2023-03-16T08:03:49;15.50;59.00
17998;DHT22;9124;48.144;17.098;2023-03-16T08:07:26;18.50;58.40
17998;DHT22;9124;48.144;17.098;2023-03-16T08:11:13;20.80;56.40
17998;DHT22;9124;48.144;17.098;2023-03-16T08:14:58;22.00;52.70
17998;DHT22;9124;48.144;17.098;2023-03-16T08:18:38;23.00;50.80
17998;DHT22;9124;48.144;17.098;2023-03-16T08:22:16;24.20;49.00
17998;DHT22;9124;48.144;17.098;2023-03-16T08:25:56;24.90;47.50
17998;DHT22;9124;48.144;17.098;2023-03-16T08:29:34;26.10;45.40
17998;DHT22;9124;48.144;17.098;2023-03-16T08:33:11;26.80;43.70
17998;DHT22;9124;48.144;17.098;2023-03-16T08:36:49;26.80;41.90
17998;DHT22;9124;48.144;17.098;2023-03-16T08:40:25;26.70;40.50
17998;DHT22;9124;48.144;17.098;2023-03-16T08:44:06;27.10;39.80
17998;DHT22;9124;48.144;17.098;2023-03-16T08:47:43;27.30;39.00
17998;DHT22;9124;48.144;17.098;2023-03-16T08:51:21;27.50;37.70
17998;DHT22;9124;48.144;17.098;2023-03-16T08:54:57;28.40;37.20
17998;DHT22;9124;48.144;17.098;2023-03-16T08:58:34;28.50;36.00
17998;DHT22;9124;48.144;17.098;2023-03-16T09:02:13;28.70;35.00
17998;DHT22;9124;48.144;17.098;2023-03-16T09:05:49;28.70;34.70
17998;DHT22;9124;48.144;17.098;2023-03-16T09:09:26;29.00;34.60
17998;DHT22;9124;48.144;17.098;2023-03-16T09:13:04;29.20;34.20
17998;DHT22;9124;48.144;17.098;2023-03-16T09:16:40;29.50;32.90
17998;DHT22;9124;48.144;17.098;2023-03-16T09:20:17;30.10;32.40
17998;DHT22;9124;48.144;17.098;2023-03-16T09:23:54;29.90;31.20
17998;DHT22;9124;48.144;17.098;2023-03-16T09:27:31;29.60;31.10
17998;DHT22;9124;48.144;17.098;2023-03-16T09:31:13;29.80;30.20
17998;DHT22;9124;48.144;17.098;2023-03-16T09:34:50;29.60;29.80
17998;DHT22;9124;48.144;17.098;2023-03-16T09:38:28;29.90;29.50
17998;DHT22;9124;48.144;17.098;2023-03-16T09:49:47;28.80;28.10
17998;DHT22;9124;48.144;17.098;2023-03-16T09:53:24;30.20;28.40
17998;DHT22;9124;48.144;17.098;2023-03-16T09:57:04;31.20;28.10
17998;DHT22;9124;48.144;17.098;2023-03-16T10:05:23;31.70;27.00
17998;DHT22;9124;48.144;17.098;2023-03-16T10:09:32;32.40;27.20
17998;DHT22;9124;48.144;17.098;2023-03-16T10:13:20;34.00;26.40
17998;DHT22;9124;48.144;17.098;2023-03-16T10:17:05;34.60;26.00
17998;DHT22;9124;48.144;17.098;2023-03-16T10:20:43;34.80;25.30
17998;DHT22;9124;48.144;17.098;2023-03-16T10:28:19;30.50;24.70
17998;DHT22;9124;48.144;17.098;2023-03-16T10:32:06;31.20;24.90
17998;DHT22;9124;48.144;17.098;2023-03-16T10:36:12;31.90;24.50
17998;DHT22;9124;48.144;17.098;2023-03-16T10:39:51;32.40;24.20
17998;DHT22;9124;48.144;17.098;2023-03-16T10:43:28;31.50;24.00
17998;DHT22;9124;48.144;17.098;2023-03-16T10:47:06;31.50;23.80
17998;DHT22;9124;48.144;17.098;2023-03-16T10:50:52;29.20;23.40
17998;DHT22;9124;48.144;17.098;2023-03-16T10:54:34;27.90;23.50
17998;DHT22;9124;48.144;17.098;2023-03-16T10:58:25;28.10;23.80
17998;DHT22;9124;48.144;17.098;2023-03-16T11:02:20;28.10;23.30
17998;DHT22;9124;48.144;17.098;2023-03-16T11:06:01;27.60;23.40
17998;DHT22;9124;48.144;17.098;2023-03-16T11:09:38;25.60;22.80
17998;DHT22;9124;48.144;17.098;2023-03-16T11:13:17;21.90;23.30
17998;DHT22;9124;48.144;17.098;2023-03-16T11:17:13;18.60;24.00
17998;DHT22;9124;48.144;17.098;2023-03-16T11:20:52;16.10;25.40
17998;DHT22;9124;48.144;17.098;2023-03-16T11:28:45;13.50;26.80
17998;DHT22;9124;48.144;17.098;2023-03-16T11:32:37;12.60;27.60
17998;DHT22;9124;48.144;17.098;2023-03-16T11:36:21;11.90;28.20
17998;DHT22;9124;48.144;17.098;2023-03-16T11:40:16;11.30;28.40
17998;DHT22;9124;48.144;17.098;2023-03-16T11:43:57;11.20;28.90
17998;DHT22;9124;48.144;17.098;2023-03-16T12:00:05;10.60;30.50
17998;DHT22;9124;48.144;17.098;2023-03-16T12:04:16;10.70;30.50
17998;DHT22;9124;48.144;17.098;2023-03-16T12:15:46;10.30;30.90
17998;DHT22;9124;48.144;17.098;2023-03-16T12:19:40;10.20;31.00
17998;DHT22;9124;48.144;17.098;2023-03-16T12:23:48;10.10;31.40
17998;DHT22;9124;48.144;17.098;2023-03-16T12:27:35;10.10;31.40
17998;DHT22;9124;48.144;17.098;2023-03-16T12:31:19;10.20;31.60
17998;DHT22;9124;48.144;17.098;2023-03-16T12:35:15;10.30;32.20
17998;DHT22;9124;48.144;17.098;2023-03-16T12:39:00;10.20;32.20
17998;DHT22;9124;48.144;17.098;2023-03-16T12:43:11;10.20;32.30
17998;DHT22;9124;48.144;17.098;2023-03-16T12:47:08;10.20;32.70
17998;DHT22;9124;48.144;17.098;2023-03-16T12:50:53;10.10;32.60
17998;DHT22;9124;48.144;17.098;2023-03-16T12:54:32;10.00;32.70
17998;DHT22;9124;48.144;17.098;2023-03-16T12:58:08;10.00;32.80
17998;DHT22;9124;48.144;17.098;2023-03-16T13:01:50;10.00;32.80
17998;DHT22;9124;48.144;17.098;2023-03-16T13:05:35;10.10;33.00
17998;DHT22;9124;48.144;17.098;2023-03-16T13:09:19;10.00;33.10
17998;DHT22;9124;48.144;17.098;2023-03-16T13:17:37;9.90;33.80
17998;DHT22;9124;48.144;17.098;2023-03-16T13:21:18;9.90;33.50
17998;DHT22;9124;48.144;17.098;2023-03-16T13:28:53;9.90;33.70
17998;DHT22;9124;48.144;17.098;2023-03-16T13:32:32;9.90;33.70
17998;DHT22;9124;48.144;17.098;2023-03-16T13:36:10;9.80;33.70
17998;DHT22;9124;48.144;17.098;2023-03-16T13:40:21;9.90;33.80
17998;DHT22;9124;48.144;17.098;2023-03-16T13:43:58;9.90;33.90
17998;DHT22;9124;48.144;17.098;2023-03-16T13:47:35;10.00;33.80
17998;DHT22;9124;48.144;17.098;2023-03-16T13:51:16;10.10;33.90
17998;DHT22;9124;48.144;17.098;2023-03-16T13:54:55;10.00;34.10
17998;DHT22;9124;48.144;17.098;2023-03-16T13:58:34;9.90;34.20
17998;DHT22;9124;48.144;17.098;2023-03-16T14:02:20;9.90;34.40
17998;DHT22;9124;48.144;17.098;2023-03-16T14:05:58;9.80;34.40
17998;DHT22;9124;48.144;17.098;2023-03-16T14:09:34;9.80;34.40
17998;DHT22;9124;48.144;17.098;2023-03-16T14:13:37;9.80;34.40
17998;DHT22;9124;48.144;17.098;2023-03-16T14:17:21;9.80;34.60
17998;DHT22;9124;48.144;17.098;2023-03-16T14:20:58;9.70;34.70
17998;DHT22;9124;48.144;17.098;2023-03-16T14:24:37;9.60;34.60
17998;DHT22;9124;48.144;17.098;2023-03-16T14:28:32;9.70;34.80
17998;DHT22;9124;48.144;17.098;2023-03-16T14:32:31;9.60;34.80
17998;DHT22;9124;48.144;17.098;2023-03-16T14:36:16;9.60;35.00
17998;DHT22;9124;48.144;17.098;2023-03-16T14:40:00;9.60;35.10
17998;DHT22;9124;48.144;17.098;2023-03-16T14:43:58;9.60;35.20
17998;DHT22;9124;48.144;17.098;2023-03-16T14:47:41;9.60;35.40
17998;DHT22;9124;48.144;17.098;2023-03-16T14:51:18;9.50;35.40
17998;DHT22;9124;48.144;17.098;2023-03-16T14:54:54;9.50;35.40
17998;DHT22;9124;48.144;17.098;2023-03-16T15:03:12;9.50;35.70
17998;DHT22;9124;48.144;17.098;2023-03-16T15:06:50;9.40;35.70
17998;DHT22;9124;48.144;17.098;2023-03-16T15:10:29;9.40;35.60
17998;DHT22;9124;48.144;17.098;2023-03-16T15:14:10;9.30;35.70
17998;DHT22;9124;48.144;17.098;2023-03-16T15:18:10;9.30;35.90
17998;DHT22;9124;48.144;17.098;2023-03-16T15:21:46;9.60;36.00
17998;DHT22;9124;48.144;17.098;2023-03-16T15:25:44;10.00;36.20
17998;DHT22;9124;48.144;17.098;2023-03-16T15:29:21;10.20;35.90
17998;DHT22;9124;48.144;17.098;2023-03-16T15:32:58;9.80;35.60
17998;DHT22;9124;48.144;17.098;2023-03-16T15:36:34;9.60;36.30
17998;DHT22;9124;48.144;17.098;2023-03-16T15:40:34;9.30;35.70
17998;DHT22;9124;48.144;17.098;2023-03-16T15:44:12;9.20;36.20
17998;DHT22;9124;48.144;17.098;2023-03-16T15:47:50;9.00;36.10
17998;DHT22;9124;48.144;17.098;2023-03-16T15:51:28;8.90;36.30
17998;DHT22;9124;48.144;17.098;2023-03-16T15:55:09;8.70;36.40
17998;DHT22;9124;48.144;17.098;2023-03-16T15:58:50;8.60;36.50
17998;DHT22;9124;48.144;17.098;2023-03-16T16:02:31;8.40;36.60
17998;DHT22;9124;48.144;17.098;2023-03-16T16:06:09;8.20;36.70
17998;DHT22;9124;48.144;17.098;2023-03-16T16:09:47;8.00;36.80
17998;DHT22;9124;48.144;17.098;2023-03-16T16:13:27;7.90;36.90
17998;DHT22;9124;48.144;17.098;2023-03-16T16:17:14;7.70;37.10
17998;DHT22;9124;48.144;17.098;2023-03-16T16:20:58;7.60;37.30
17998;DHT22;9124;48.144;17.098;2023-03-16T16:24:35;7.60;37.30
17998;DHT22;9124;48.144;17.098;2023-03-16T16:28:18;7.50;37.40
17998;DHT22;9124;48.144;17.098;2023-03-16T16:32:23;7.40;37.50
17998;DHT22;9124;48.144;17.098;2023-03-16T16:36:02;7.30;37.60
17998;DHT22;9124;48.144;17.098;2023-03-16T16:39:39;7.20;37.60
17998;DHT22;9124;48.144;17.098;2023-03-16T16:43:38;7.10;37.70
17998;DHT22;9124;48.144;17.098;2023-03-16T16:47:23;7.00;38.00
17998;DHT22;9124;48.144;17.098;2023-03-16T16:51:33;6.80;37.90
17998;DHT22;9124;48.144;17.098;2023-03-16T16:55:10;6.70;37.90
17998;DHT22;9124;48.144;17.098;2023-03-16T16:58:49;6.50;38.00
17998;DHT22;9124;48.144;17.098;2023-03-16T17:02:31;6.40;38.20
17998;DHT22;9124;48.144;17.098;2023-03-16T17:11:30;6.20;38.60
17998;DHT22;9124;48.144;17.098;2023-03-16T17:15:28;6.10;38.40
17998;DHT22;9124;48.144;17.098;2023-03-16T17:19:09;6.00;39.00
17998;DHT22;9124;48.144;17.098;2023-03-16T17:22:52;5.90;38.80
17998;DHT22;9124;48.144;17.098;2023-03-16T17:26:31;5.80;38.90
17998;DHT22;9124;48.144;17.098;2023-03-16T17:30:30;5.70;39.10
17998;DHT22;9124;48.144;17.098;2023-03-16T17:34:16;5.60;39.50
17998;DHT22;9124;48.144;17.098;2023-03-16T17:37:54;5.50;39.60
17998;DHT22;9124;48.144;17.098;2023-03-16T17:41:30;5.50;39.50
17998;DHT22;9124;48.144;17.098;2023-03-16T17:45:21;5.50;39.70
17998;DHT22;9124;48.144;17.098;2023-03-16T17:48:59;5.40;40.00
17998;DHT22;9124;48.144;17.098;2023-03-16T17:52:36;5.40;39.80
17998;DHT22;9124;48.144;17.098;2023-03-16T17:56:16;5.30;39.90
17998;DHT22;9124;48.144;17.098;2023-03-16T17:59:54;5.20;39.90
17998;DHT22;9124;48.144;17.098;2023-03-16T18:03:31;5.20;40.00
17998;DHT22;9124;48.144;17.098;2023-03-16T18:07:11;5.10;40.00
17998;DHT22;9124;48.144;17.098;2023-03-16T18:14:33;5.10;40.40
17998;DHT22;9124;48.144;17.098;2023-03-16T18:18:16;5.10;40.50
17998;DHT22;9124;48.144;17.098;2023-03-16T18:21:53;5.00;40.60
17998;DHT22;9124;48.144;17.098;2023-03-16T18:25:33;4.90;40.70
17998;DHT22;9124;48.144;17.098;2023-03-16T18:29:10;4.70;40.80
17998;DHT22;9124;48.144;17.098;2023-03-16T18:32:46;4.60;40.80
17998;DHT22;9124;48.144;17.098;2023-03-16T18:36:28;4.50;40.90
17998;DHT22;9124;48.144;17.098;2023-03-16T18:40:05;4.40;41.20
17998;DHT22;9124;48.144;17.098;2023-03-16T18:43:42;4.40;41.30
17998;DHT22;9124;48.144;17.098;2023-03-16T18:47:21;4.30;41.30
17998;DHT22;9124;48.144;17.098;2023-03-16T18:50:58;4.20;41.40
17998;DHT22;9124;48.144;17.098;2023-03-16T18:54:35;4.10;41.60
17998;DHT22;9124;48.144;17.098;2023-03-16T19:03:33;4.00;42.20
17998;DHT22;9124;48.144;17.098;2023-03-16T19:07:42;4.00;41.90
17998;DHT22;9124;48.144;17.098;2023-03-16T19:11:17;3.90;42.20
17998;DHT22;9124;48.144;17.098;2023-03-16T19:14:53;3.80;42.20
17998;DHT22;9124;48.144;17.098;2023-03-16T19:18:30;3.70;42.30
17998;DHT22;9124;48.144;17.098;2023-03-16T19:26:48;3.70;42.90
17998;DHT22;9124;48.144;17.098;2023-03-16T19:30:27;3.60;42.60
17998;DHT22;9124;48.144;17.098;2023-03-16T19:34:13;3.60;42.80
17998;DHT22;9124;48.144;17.098;2023-03-16T19:37:51;3.60;43.00
17998;DHT22;9124;48.144;17.098;2023-03-16T19:41:31;3.50;43.00
17998;DHT22;9124;48.144;17.098;2023-03-16T19:45:22;3.50;43.30
17998;DHT22;9124;48.144;17.098;2023-03-16T19:48:59;3.50;43.40
17998;DHT22;9124;48.144;17.098;2023-03-16T19:52:36;3.40;43.30
17998;DHT22;9124;48.144;17.098;2023-03-16T19:56:18;3.30;43.50
17998;DHT22;9124;48.144;17.098;2023-03-16T19:59:56;3.30;43.70
17998;DHT22;9124;48.144;17.098;2023-03-16T20:03:35;3.30;43.80
17998;DHT22;9124;48.144;17.098;2023-03-16T20:07:16;3.20;43.80
17998;DHT22;9124;48.144;17.098;2023-03-16T20:11:01;3.20;43.90
17998;DHT22;9124;48.144;17.098;2023-03-16T20:14:38;3.20;44.00
17998;DHT22;9124;48.144;17.098;2023-03-16T20:18:15;3.10;44.10
17998;DHT22;9124;48.144;17.098;2023-03-16T20:21:53;3.10;44.20
17998;DHT22;9124;48.144;17.098;2023-03-16T20:25:32;3.00;44.20
17998;DHT22;9124;48.144;17.098;2023-03-16T20:29:27;3.00;44.30
17998;DHT22;9124;48.144;17.098;2023-03-16T20:33:04;3.10;44.70
17998;DHT22;9124;48.144;17.098;2023-03-16T20:36:41;3.10;44.40
17998;DHT22;9124;48.144;17.098;2023-03-16T20:49:51;2.90;44.70
17998;DHT22;9124;48.144;17.098;2023-03-16T20:53:28;2.90;44.50
17998;DHT22;9124;48.144;17.098;2023-03-16T20:57:08;2.80;44.60
17998;DHT22;9124;48.144;17.098;2023-03-16T21:00:48;2.90;44.90
17998;DHT22;9124;48.144;17.098;2023-03-16T21:04:26;2.90;44.90
17998;DHT22;9124;48.144;17.098;2023-03-16T21:08:03;2.90;44.90
17998;DHT22;9124;48.144;17.098;2023-03-16T21:11:39;2.90;44.90
17998;DHT22;9124;48.144;17.098;2023-03-16T21:15:46;2.80;44.90
17998;DHT22;9124;48.144;17.098;2023-03-16T21:19:24;2.80;45.80
17998;DHT22;9124;48.144;17.098;2023-03-16T21:23:02;2.80;45.00
17998;DHT22;9124;48.144;17.098;2023-03-16T21:26:39;2.80;45.10
17998;DHT22;9124;48.144;17.098;2023-03-16T21:30:27;2.70;45.10
17998;DHT22;9124;48.144;17.098;2023-03-16T21:38:43;2.70;45.50
17998;DHT22;9124;48.144;17.098;2023-03-16T21:42:20;2.70;45.30
17998;DHT22;9124;48.144;17.098;2023-03-16T21:45:56;2.70;45.50
17998;DHT22;9124;48.144;17.098;2023-03-16T21:49:34;2.70;45.60
17998;DHT22;9124;48.144;17.098;2023-03-16T21:53:26;2.60;45.70
17998;DHT22;9124;48.144;17.098;2023-03-16T21:57:11;2.60;45.90
17998;DHT22;9124;48.144;17.098;2023-03-16T22:00:50;2.50;45.90
17998;DHT22;9124;48.144;17.098;2023-03-16T22:04:27;2.50;46.00
17998;DHT22;9124;48.144;17.098;2023-03-16T22:08:22;2.50;46.20
17998;DHT22;9124;48.144;17.098;2023-03-16T22:16:42;2.40;46.40
17998;DHT22;9124;48.144;17.098;2023-03-16T22:20:22;2.40;46.20
17998;DHT22;9124;48.144;17.098;2023-03-16T22:28:39;2.30;46.80
17998;DHT22;9124;48.144;17.098;2023-03-16T22:32:18;2.20;46.60
17998;DHT22;9124;48.144;17.098;2023-03-16T22:36:08;2.20;46.80
17998;DHT22;9124;48.144;17.098;2023-03-16T22:49:58;2.10;47.40
17998;DHT22;9124;48.144;17.098;2023-03-16T22:58:16;1.90;47.60
17998;DHT22;9124;48.144;17.098;2023-03-16T23:01:54;1.90;47.50
17998;DHT22;9124;48.144;17.098;2023-03-16T23:05:31;1.90;47.60
17998;DHT22;9124;48.144;17.098;2023-03-16T23:09:12;1.90;47.70
17998;DHT22;9124;48.144;17.098;2023-03-16T23:17:22;2.00;48.20
17998;DHT22;9124;48.144;17.098;2023-03-16T23:21:35;2.00;48.00
17998;DHT22;9124;48.144;17.098;2023-03-16T23:25:20;2.00;48.20
17998;DHT22;9124;48.144;17.098;2023-03-16T23:33:11;2.00;48.40
17998;DHT22;9124;48.144;17.098;2023-03-16T23:36:49;2.00;48.20
17998;DHT22;9124;48.144;17.098;2023-03-16T23:40:27;2.00;48.30
17998;DHT22;9124;48.144;17.098;2023-03-16T23:44:05;2.10;48.40
